sensor_id;sensor_type;location;lat;lon;timestamp;temperature;humidity
4874;DHT22;2451;49.970;9.068;2023-03-01T00:01:04;0.80;99.90
4874;DHT22;2451;49.970;9.068;2023-03-01T00:03:30;0.70;99.90
4874;DHT22;2451;49.970;9.068;2023-03-01T00:05:57;0.70;99.90
4874;DHT22;2451;49.970;9.068;2023-03-01T00:08:22;0.60;99.90
4874;DHT22;2451;49.970;9.068;2023-03-01T00:10:48;0.60;99.90
4874;DHT22;2451;49.970;9.068;2023-03-01T00:13:14;0.60;99.90
4874;DHT22;2451;49.970;9.068;2023-03-01T00:15:40;0.60;99.90
4874;DHT22;2451;49.970;9.068;2023-03-01T00:18:07;0.60;99.90
4874;DHT22;2451;49.970;9.068;2023-03-01T00:20:34;0.60;99.90
4874;DHT22;2451;49.970;9.068;2023-03-01T00:22:59;0.50;99.90
4874;DHT22;2451;49.970;9.068;2023-03-01T00:25:25;0.50;99.90
4874;DHT22;2451;49.970;9.068;2023-03-01T00:27:50;0.50;99.90
4874;DHT22;2451;49.970;9.068;2023-03-01T00:30:16;0.50;99.90
4874;DHT22;2451;49.970;9.068;2023-03-01T00:32:42;0.50;99.90
4874;DHT22;2451;49.970;9.068;2023-03-01T00:35:07;0.50;99.90
4874;DHT22;2451;49.970;9.068;2023-03-01T00:37:33;0.50;99.90
4874;DHT22;2451;49.970;9.068;2023-03-01T00:39:59;0.50;99.90
4874;DHT22;2451;49.970;9.068;2023-03-01T00:42:24;0.60;99.90
4874;DHT22;2451;49.970;9.068;2023-03-01T00:44:50;0.60;99.90
4874;DHT22;2451;49.970;9.068;2023-03-01T00:47:15;0.60;99.90
4874;DHT22;2451;49.970;9.068;2023-03-01T00:49:41;0.60;99.90
4874;DHT22;2451;49.970;9.068;2023-03-01T00:52:06;0.60;99.90
4874;DHT22;2451;49.970;9.068;2023-03-01T00:54:32;0.70;99.90
4874;DHT22;2451;49.970;9.068;2023-03-01T00:56:57;0.60;99.90
4874;DHT22;2451;49.970;9.068;2023-03-01T00:59:23;0.60;99.90
4874;DHT22;2451;49.970;9.068;2023-03-01T01:01:48;0.60;99.90
4874;DHT22;2451;49.970;9.068;2023-03-01T01:04:15;0.60;99.90
4874;DHT22;2451;49.970;9.068;2023-03-01T01:06:45;0.60;99.90
4874;DHT22;2451;49.970;9.068;2023-03-01T01:09:16;0.60;99.90
4874;DHT22;2451;49.970;9.068;2023-03-01T01:11:46;0.60;99.90
4874;DHT22;2451;49.970;9.068;2023-03-01T01:14:13;0.60;99.90
4874;DHT22;2451;49.970;9.068;2023-03-01T01:16:41;0.60;99.90
4874;DHT22;2451;49.970;9.068;2023-03-01T01:19:07;0.50;99.90
4874;DHT22;2451;49.970;9.068;2023-03-01T01:21:34;0.50;99.90
4874;DHT22;2451;49.970;9.068;2023-03-01T01:23:59;0.40;99.90
4874;DHT22;2451;49.970;9.068;2023-03-01T01:26:31;0.40;99.90
4874;DHT22;2451;49.970;9.068;2023-03-01T01:28:56;0.30;99.90
4874;DHT22;2451;49.970;9.068;2023-03-01T01:31:23;0.30;99.90
4874;DHT22;2451;49.970;9.068;2023-03-01T01:33:49;0.30;99.90
4874;DHT22;2451;49.970;9.068;2023-03-01T01:36:16;0.30;99.90
4874;DHT22;2451;49.970;9.068;2023-03-01T01:38:41;0.30;99.90
4874;DHT22;2451;49.970;9.068;2023-03-01T01:41:08;0.30;99.90
4874;DHT22;2451;49.970;9.068;2023-03-01T01:43:42;0.30;99.90
4874;DHT22;2451;49.970;9.068;2023-03-01T01:49:01;0.30;99.90
4874;DHT22;2451;49.970;9.068;2023-03-01T01:51:37;0.30;99.90
4874;DHT22;2451;49.970;9.068;2023-03-01T01:54:14;0.30;99.90
4874;DHT22;2451;49.970;9.068;2023-03-01T01:56:44;0.30;99.90
4874;DHT22;2451;49.970;9.068;2023-03-01T01:59:11;0.30;99.90
4874;DHT22;2451;49.970;9.068;2023-03-01T02:01:37;0.30;99.90
4874;DHT22;2451;49.970;9.068;2023-03-01T02:04:03;0.30;99.90
4874;DHT22;2451;49.970;9.068;2023-03-01T02:06:35;0.30;99.90
4874;DHT22;2451;49.970;9.068;2023-03-01T02:09:06;0.40;99.90
4874;DHT22;2451;49.970;9.068;2023-03-01T02:11:33;0.40;99.90
4874;DHT22;2451;49.970;9.068;2023-03-01T02:13:59;0.40;99.90
4874;DHT22;2451;49.970;9.068;2023-03-01T02:16:26;0.50;99.90
4874;DHT22;2451;49.970;9.068;2023-03-01T02:18:52;0.50;99.90
4874;DHT22;2451;49.970;9.068;2023-03-01T02:23:56;0.50;99.90
4874;DHT22;2451;49.970;9.068;2023-03-01T02:26:46;0.50;99.90
4874;DHT22;2451;49.970;9.068;2023-03-01T02:29:13;0.50;99.90
4874;DHT22;2451;49.970;9.068;2023-03-01T02:31:41;0.50;99.90
4874;DHT22;2451;49.970;9.068;2023-03-01T02:34:14;0.60;99.90
4874;DHT22;2451;49.970;9.068;2023-03-01T02:39:15;0.60;99.90
4874;DHT22;2451;49.970;9.068;2023-03-01T02:41:48;0.60;99.90
4874;DHT22;2451;49.970;9.068;2023-03-01T02:44:14;0.70;99.90
4874;DHT22;2451;49.970;9.068;2023-03-01T02:46:46;0.70;99.90
4874;DHT22;2451;49.970;9.068;2023-03-01T02:50:02;0.70;99.90
4874;DHT22;2451;49.970;9.068;2023-03-01T02:55:03;0.80;99.90
4874;DHT22;2451;49.970;9.068;2023-03-01T02:57:31;0.80;99.90
4874;DHT22;2451;49.970;9.068;2023-03-01T03:00:03;0.80;99.90
4874;DHT22;2451;49.970;9.068;2023-03-01T03:02:34;0.80;99.90
4874;DHT22;2451;49.970;9.068;2023-03-01T03:05:05;0.80;99.90
4874;DHT22;2451;49.970;9.068;2023-03-01T03:07:34;0.80;99.90
4874;DHT22;2451;49.970;9.068;2023-03-01T03:10:01;0.80;99.90
4874;DHT22;2451;49.970;9.068;2023-03-01T03:12:27;0.70;99.90
4874;DHT22;2451;49.970;9.068;2023-03-01T03:14:52;0.80;99.90
4874;DHT22;2451;49.970;9.068;2023-03-01T03:17:18;0.70;99.90
4874;DHT22;2451;49.970;9.068;2023-03-01T03:19:43;0.70;99.90
4874;DHT22;2451;49.970;9.068;2023-03-01T03:22:13;0.80;99.90
4874;DHT22;2451;49.970;9.068;2023-03-01T03:24:39;0.80;99.90
4874;DHT22;2451;49.970;9.068;2023-03-01T03:27:06;0.80;99.90
4874;DHT22;2451;49.970;9.068;2023-03-01T03:29:32;0.70;99.90
4874;DHT22;2451;49.970;9.068;2023-03-01T03:31:58;0.80;99.90
4874;DHT22;2451;49.970;9.068;2023-03-01T03:34:24;0.80;99.90
4874;DHT22;2451;49.970;9.068;2023-03-01T03:36:55;0.80;99.90
4874;DHT22;2451;49.970;9.068;2023-03-01T03:39:26;0.80;99.90
4874;DHT22;2451;49.970;9.068;2023-03-01T03:41:52;0.80;99.90
4874;DHT22;2451;49.970;9.068;2023-03-01T03:44:19;0.90;99.90
4874;DHT22;2451;49.970;9.068;2023-03-01T03:46:45;0.90;99.90
4874;DHT22;2451;49.970;9.068;2023-03-01T03:49:11;0.80;99.90
4874;DHT22;2451;49.970;9.068;2023-03-01T03:51:36;0.80;99.90
4874;DHT22;2451;49.970;9.068;2023-03-01T03:54:02;0.80;99.90
4874;DHT22;2451;49.970;9.068;2023-03-01T03:56:27;0.90;99.90
4874;DHT22;2451;49.970;9.068;2023-03-01T03:58:53;0.90;99.90
4874;DHT22;2451;49.970;9.068;2023-03-01T04:01:19;0.90;99.90
4874;DHT22;2451;49.970;9.068;2023-03-01T04:03:44;0.90;99.90
4874;DHT22;2451;49.970;9.068;2023-03-01T04:06:14;0.90;99.90
4874;DHT22;2451;49.970;9.068;2023-03-01T04:08:40;0.90;99.90
4874;DHT22;2451;49.970;9.068;2023-03-01T04:11:06;0.90;99.90
4874;DHT22;2451;49.970;9.068;2023-03-01T04:13:52;0.90;99.90
4874;DHT22;2451;49.970;9.068;2023-03-01T04:16:18;0.90;99.90
4874;DHT22;2451;49.970;9.068;2023-03-01T04:18:44;0.90;99.90
4874;DHT22;2451;49.970;9.068;2023-03-01T04:21:10;0.80;99.90
4874;DHT22;2451;49.970;9.068;2023-03-01T04:23:37;0.80;99.90
4874;DHT22;2451;49.970;9.068;2023-03-01T04:26:03;0.70;99.90
4874;DHT22;2451;49.970;9.068;2023-03-01T04:28:29;0.60;99.90
4874;DHT22;2451;49.970;9.068;2023-03-01T04:30:57;0.50;99.90
4874;DHT22;2451;49.970;9.068;2023-03-01T04:33:24;0.40;99.90
4874;DHT22;2451;49.970;9.068;2023-03-01T04:35:50;0.40;99.90
4874;DHT22;2451;49.970;9.068;2023-03-01T04:38:17;0.40;99.90
4874;DHT22;2451;49.970;9.068;2023-03-01T04:40:43;0.30;99.90
4874;DHT22;2451;49.970;9.068;2023-03-01T04:43:10;0.30;99.90
4874;DHT22;2451;49.970;9.068;2023-03-01T04:45:36;0.20;99.90
4874;DHT22;2451;49.970;9.068;2023-03-01T04:48:03;0.30;99.90
4874;DHT22;2451;49.970;9.068;2023-03-01T04:50:29;0.30;99.90
4874;DHT22;2451;49.970;9.068;2023-03-01T04:52:55;0.30;99.90
4874;DHT22;2451;49.970;9.068;2023-03-01T04:55:27;0.30;99.90
4874;DHT22;2451;49.970;9.068;2023-03-01T04:57:53;0.40;99.90
4874;DHT22;2451;49.970;9.068;2023-03-01T05:00:19;0.40;99.90
4874;DHT22;2451;49.970;9.068;2023-03-01T05:02:53;0.40;99.90
4874;DHT22;2451;49.970;9.068;2023-03-01T05:05:39;0.40;99.90
4874;DHT22;2451;49.970;9.068;2023-03-01T05:08:10;0.30;99.90
4874;DHT22;2451;49.970;9.068;2023-03-01T05:10:51;0.40;99.90
4874;DHT22;2451;49.970;9.068;2023-03-01T05:13:18;0.30;99.90
4874;DHT22;2451;49.970;9.068;2023-03-01T05:15:55;0.40;99.90
4874;DHT22;2451;49.970;9.068;2023-03-01T05:18:22;0.40;99.90
4874;DHT22;2451;49.970;9.068;2023-03-01T05:20:51;0.40;99.90
4874;DHT22;2451;49.970;9.068;2023-03-01T05:23:17;0.40;99.90
4874;DHT22;2451;49.970;9.068;2023-03-01T05:25:44;0.40;99.90
4874;DHT22;2451;49.970;9.068;2023-03-01T05:28:11;0.30;99.90
4874;DHT22;2451;49.970;9.068;2023-03-01T05:30:37;0.40;99.90
4874;DHT22;2451;49.970;9.068;2023-03-01T05:33:04;0.40;99.90
4874;DHT22;2451;49.970;9.068;2023-03-01T05:35:32;0.40;99.90
4874;DHT22;2451;49.970;9.068;2023-03-01T05:37:58;0.40;99.90
4874;DHT22;2451;49.970;9.068;2023-03-01T05:40:24;0.30;99.90
4874;DHT22;2451;49.970;9.068;2023-03-01T05:42:53;0.30;99.90
4874;DHT22;2451;49.970;9.068;2023-03-01T05:45:19;0.30;99.90
4874;DHT22;2451;49.970;9.068;2023-03-01T05:47:47;0.30;99.90
4874;DHT22;2451;49.970;9.068;2023-03-01T05:50:34;0.30;99.90
4874;DHT22;2451;49.970;9.068;2023-03-01T05:53:15;0.40;99.90
4874;DHT22;2451;49.970;9.068;2023-03-01T05:55:41;0.40;99.90
4874;DHT22;2451;49.970;9.068;2023-03-01T05:58:11;0.50;99.90
4874;DHT22;2451;49.970;9.068;2023-03-01T06:00:39;0.50;99.90
4874;DHT22;2451;49.970;9.068;2023-03-01T06:03:05;0.50;99.90
4874;DHT22;2451;49.970;9.068;2023-03-01T06:05:31;0.60;99.90
4874;DHT22;2451;49.970;9.068;2023-03-01T06:08:00;0.50;99.90
4874;DHT22;2451;49.970;9.068;2023-03-01T06:10:26;0.60;99.90
4874;DHT22;2451;49.970;9.068;2023-03-01T06:12:52;0.60;99.90
4874;DHT22;2451;49.970;9.068;2023-03-01T06:15:18;0.60;99.90
4874;DHT22;2451;49.970;9.068;2023-03-01T06:17:45;0.70;99.90
4874;DHT22;2451;49.970;9.068;2023-03-01T06:20:14;0.70;99.90
4874;DHT22;2451;49.970;9.068;2023-03-01T06:22:40;0.70;99.90
4874;DHT22;2451;49.970;9.068;2023-03-01T06:25:06;0.80;99.90
4874;DHT22;2451;49.970;9.068;2023-03-01T06:27:32;0.80;99.90
4874;DHT22;2451;49.970;9.068;2023-03-01T06:29:57;0.80;99.90
4874;DHT22;2451;49.970;9.068;2023-03-01T06:32:23;0.80;99.90
4874;DHT22;2451;49.970;9.068;2023-03-01T06:34:49;0.90;99.90
4874;DHT22;2451;49.970;9.068;2023-03-01T06:37:15;0.90;99.90
4874;DHT22;2451;49.970;9.068;2023-03-01T06:39:40;1.00;99.90
4874;DHT22;2451;49.970;9.068;2023-03-01T06:42:07;1.10;99.90
4874;DHT22;2451;49.970;9.068;2023-03-01T06:44:33;1.20;99.90
4874;DHT22;2451;49.970;9.068;2023-03-01T06:46:59;1.30;99.90
4874;DHT22;2451;49.970;9.068;2023-03-01T06:49:24;1.50;99.90
4874;DHT22;2451;49.970;9.068;2023-03-01T06:51:50;1.60;99.90
4874;DHT22;2451;49.970;9.068;2023-03-01T06:54:15;1.90;99.90
4874;DHT22;2451;49.970;9.068;2023-03-01T06:56:43;2.30;99.90
4874;DHT22;2451;49.970;9.068;2023-03-01T06:59:08;2.80;99.90
4874;DHT22;2451;49.970;9.068;2023-03-01T07:01:34;3.10;99.90
4874;DHT22;2451;49.970;9.068;2023-03-01T07:03:59;3.50;99.90
4874;DHT22;2451;49.970;9.068;2023-03-01T07:06:25;3.90;99.90
4874;DHT22;2451;49.970;9.068;2023-03-01T07:08:50;4.30;99.90
4874;DHT22;2451;49.970;9.068;2023-03-01T07:11:16;4.60;99.90
4874;DHT22;2451;49.970;9.068;2023-03-01T07:13:42;4.90;99.90
4874;DHT22;2451;49.970;9.068;2023-03-01T07:16:08;5.20;99.90
4874;DHT22;2451;49.970;9.068;2023-03-01T07:18:33;5.50;99.90
4874;DHT22;2451;49.970;9.068;2023-03-01T07:21:07;5.80;99.30
4874;DHT22;2451;49.970;9.068;2023-03-01T07:23:33;6.00;98.50
4874;DHT22;2451;49.970;9.068;2023-03-01T07:25:59;6.20;97.80
4874;DHT22;2451;49.970;9.068;2023-03-01T07:28:26;6.10;97.50
4874;DHT22;2451;49.970;9.068;2023-03-01T07:30:51;6.30;98.00
4874;DHT22;2451;49.970;9.068;2023-03-01T07:33:17;6.70;97.30
4874;DHT22;2451;49.970;9.068;2023-03-01T07:35:43;6.80;96.50
4874;DHT22;2451;49.970;9.068;2023-03-01T07:38:08;7.00;95.90
4874;DHT22;2451;49.970;9.068;2023-03-01T07:40:35;7.20;95.70
4874;DHT22;2451;49.970;9.068;2023-03-01T07:43:00;7.30;95.20
4874;DHT22;2451;49.970;9.068;2023-03-01T07:45:29;7.60;94.70
4874;DHT22;2451;49.970;9.068;2023-03-01T07:47:55;7.70;94.10
4874;DHT22;2451;49.970;9.068;2023-03-01T07:50:22;8.00;93.40
4874;DHT22;2451;49.970;9.068;2023-03-01T07:52:49;8.10;92.90
4874;DHT22;2451;49.970;9.068;2023-03-01T07:55:16;8.10;92.20
4874;DHT22;2451;49.970;9.068;2023-03-01T07:57:42;8.10;92.30
4874;DHT22;2451;49.970;9.068;2023-03-01T08:00:10;8.20;92.40
4874;DHT22;2451;49.970;9.068;2023-03-01T08:02:35;8.40;91.60
4874;DHT22;2451;49.970;9.068;2023-03-01T08:05:01;8.50;90.70
4874;DHT22;2451;49.970;9.068;2023-03-01T08:07:27;8.40;90.60
4874;DHT22;2451;49.970;9.068;2023-03-01T08:09:52;8.40;90.30
4874;DHT22;2451;49.970;9.068;2023-03-01T08:12:18;8.20;89.80
4874;DHT22;2451;49.970;9.068;2023-03-01T08:14:43;8.10;90.60
4874;DHT22;2451;49.970;9.068;2023-03-01T08:17:09;8.30;90.50
4874;DHT22;2451;49.970;9.068;2023-03-01T08:19:34;8.20;90.10
4874;DHT22;2451;49.970;9.068;2023-03-01T08:22:03;8.20;89.10
4874;DHT22;2451;49.970;9.068;2023-03-01T08:24:28;7.90;89.20
4874;DHT22;2451;49.970;9.068;2023-03-01T08:26:54;7.70;90.00
4874;DHT22;2451;49.970;9.068;2023-03-01T08:29:20;7.70;90.90
4874;DHT22;2451;49.970;9.068;2023-03-01T08:31:46;7.60;90.40
4874;DHT22;2451;49.970;9.068;2023-03-01T08:34:13;7.50;90.80
4874;DHT22;2451;49.970;9.068;2023-03-01T08:36:43;7.50;90.70
4874;DHT22;2451;49.970;9.068;2023-03-01T08:39:11;7.30;90.60
4874;DHT22;2451;49.970;9.068;2023-03-01T08:41:37;7.40;90.70
4874;DHT22;2451;49.970;9.068;2023-03-01T08:44:04;7.40;90.30
4874;DHT22;2451;49.970;9.068;2023-03-01T08:46:32;7.40;90.00
4874;DHT22;2451;49.970;9.068;2023-03-01T08:48:58;7.40;90.10
4874;DHT22;2451;49.970;9.068;2023-03-01T08:51:25;7.50;89.70
4874;DHT22;2451;49.970;9.068;2023-03-01T08:53:50;7.50;89.70
4874;DHT22;2451;49.970;9.068;2023-03-01T08:56:17;7.60;89.20
4874;DHT22;2451;49.970;9.068;2023-03-01T08:58:47;7.60;88.80
4874;DHT22;2451;49.970;9.068;2023-03-01T09:01:18;7.70;88.80
4874;DHT22;2451;49.970;9.068;2023-03-01T09:03:44;7.70;88.00
4874;DHT22;2451;49.970;9.068;2023-03-01T09:06:11;7.60;88.10
4874;DHT22;2451;49.970;9.068;2023-03-01T09:08:39;7.50;88.80
4874;DHT22;2451;49.970;9.068;2023-03-01T09:11:06;7.50;89.20
4874;DHT22;2451;49.970;9.068;2023-03-01T09:13:32;7.40;88.40
4874;DHT22;2451;49.970;9.068;2023-03-01T09:15:59;7.40;89.50
4874;DHT22;2451;49.970;9.068;2023-03-01T09:18:25;7.40;89.70
4874;DHT22;2451;49.970;9.068;2023-03-01T09:20:51;7.50;89.20
4874;DHT22;2451;49.970;9.068;2023-03-01T09:23:16;7.70;89.70
4874;DHT22;2451;49.970;9.068;2023-03-01T09:25:42;7.70;89.00
4874;DHT22;2451;49.970;9.068;2023-03-01T09:28:07;7.50;87.40
4874;DHT22;2451;49.970;9.068;2023-03-01T09:30:33;7.50;89.10
4874;DHT22;2451;49.970;9.068;2023-03-01T09:32:59;7.50;88.60
4874;DHT22;2451;49.970;9.068;2023-03-01T09:35:24;7.70;88.40
4874;DHT22;2451;49.970;9.068;2023-03-01T09:37:50;7.60;88.40
4874;DHT22;2451;49.970;9.068;2023-03-01T09:40:21;7.80;88.20
4874;DHT22;2451;49.970;9.068;2023-03-01T09:42:59;8.10;87.20
4874;DHT22;2451;49.970;9.068;2023-03-01T09:45:34;8.30;86.50
4874;DHT22;2451;49.970;9.068;2023-03-01T09:48:01;8.40;85.00
4874;DHT22;2451;49.970;9.068;2023-03-01T09:50:33;8.00;84.20
4874;DHT22;2451;49.970;9.068;2023-03-01T09:53:06;8.20;86.20
4874;DHT22;2451;49.970;9.068;2023-03-01T10:00:56;9.10;83.80
4874;DHT22;2451;49.970;9.068;2023-03-01T10:03:28;9.30;82.80
4874;DHT22;2451;49.970;9.068;2023-03-01T10:06:11;9.60;80.40
4874;DHT22;2451;49.970;9.068;2023-03-01T10:08:49;9.40;80.00
4874;DHT22;2451;49.970;9.068;2023-03-01T10:11:29;9.40;80.90
4874;DHT22;2451;49.970;9.068;2023-03-01T10:14:01;9.70;80.30
4874;DHT22;2451;49.970;9.068;2023-03-01T10:16:34;9.70;78.30
4874;DHT22;2451;49.970;9.068;2023-03-01T10:19:04;9.90;77.80
4874;DHT22;2451;49.970;9.068;2023-03-01T10:21:30;10.10;75.80
4874;DHT22;2451;49.970;9.068;2023-03-01T10:24:08;10.40;75.00
4874;DHT22;2451;49.970;9.068;2023-03-01T10:26:47;10.60;74.50
4874;DHT22;2451;49.970;9.068;2023-03-01T10:29:14;10.80;73.80
4874;DHT22;2451;49.970;9.068;2023-03-01T10:31:41;10.80;71.20
4874;DHT22;2451;49.970;9.068;2023-03-01T10:34:21;10.70;70.80
4874;DHT22;2451;49.970;9.068;2023-03-01T10:36:51;10.90;70.80
4874;DHT22;2451;49.970;9.068;2023-03-01T10:39:18;11.00;69.50
4874;DHT22;2451;49.970;9.068;2023-03-01T10:42:22;11.10;68.80
4874;DHT22;2451;49.970;9.068;2023-03-01T10:44:50;11.30;68.40
4874;DHT22;2451;49.970;9.068;2023-03-01T10:47:21;11.50;66.90
4874;DHT22;2451;49.970;9.068;2023-03-01T10:50:05;11.60;66.90
4874;DHT22;2451;49.970;9.068;2023-03-01T10:52:34;11.80;65.40
4874;DHT22;2451;49.970;9.068;2023-03-01T10:57:39;11.30;65.30
4874;DHT22;2451;49.970;9.068;2023-03-01T11:00:25;11.30;65.20
4874;DHT22;2451;49.970;9.068;2023-03-01T11:03:11;11.50;63.80
4874;DHT22;2451;49.970;9.068;2023-03-01T11:05:50;11.80;62.60
4874;DHT22;2451;49.970;9.068;2023-03-01T11:08:30;11.40;60.60
4874;DHT22;2451;49.970;9.068;2023-03-01T11:11:16;10.90;62.00
4874;DHT22;2451;49.970;9.068;2023-03-01T11:16:36;11.40;62.50
4874;DHT22;2451;49.970;9.068;2023-03-01T11:21:36;12.10;60.20
4874;DHT22;2451;49.970;9.068;2023-03-01T11:24:04;12.00;59.10
4874;DHT22;2451;49.970;9.068;2023-03-01T11:26:37;12.30;59.00
4874;DHT22;2451;49.970;9.068;2023-03-01T11:29:09;11.80;58.20
4874;DHT22;2451;49.970;9.068;2023-03-01T11:31:37;11.80;58.90
4874;DHT22;2451;49.970;9.068;2023-03-01T11:37:22;11.70;60.00
4874;DHT22;2451;49.970;9.068;2023-03-01T11:39:58;11.80;58.80
4874;DHT22;2451;49.970;9.068;2023-03-01T11:42:28;11.70;58.80
4874;DHT22;2451;49.970;9.068;2023-03-01T11:44:59;12.10;58.90
4874;DHT22;2451;49.970;9.068;2023-03-01T11:47:53;12.40;57.80
4874;DHT22;2451;49.970;9.068;2023-03-01T11:50:41;12.30;57.00
4874;DHT22;2451;49.970;9.068;2023-03-01T11:58:38;13.20;55.70
4874;DHT22;2451;49.970;9.068;2023-03-01T12:06:36;13.70;54.90
4874;DHT22;2451;49.970;9.068;2023-03-01T12:13:32;13.70;53.70
4874;DHT22;2451;49.970;9.068;2023-03-01T12:15:54;13.50;52.70
4874;DHT22;2451;49.970;9.068;2023-03-01T12:29:31;13.30;52.90
4874;DHT22;2451;49.970;9.068;2023-03-01T12:32:25;13.40;53.20
4874;DHT22;2451;49.970;9.068;2023-03-01T12:37:54;13.30;52.40
4874;DHT22;2451;49.970;9.068;2023-03-01T12:40:35;13.10;52.50
4874;DHT22;2451;49.970;9.068;2023-03-01T12:46:10;12.80;53.50
4874;DHT22;2451;49.970;9.068;2023-03-01T12:51:24;13.90;52.90
4874;DHT22;2451;49.970;9.068;2023-03-01T12:53:54;14.10;52.00
4874;DHT22;2451;49.970;9.068;2023-03-01T12:56:27;14.20;51.70
4874;DHT22;2451;49.970;9.068;2023-03-01T13:10:08;13.80;51.00
4874;DHT22;2451;49.970;9.068;2023-03-01T13:17:57;13.20;50.60
4874;DHT22;2451;49.970;9.068;2023-03-01T13:31:00;13.40;51.50
4874;DHT22;2451;49.970;9.068;2023-03-01T13:35:56;13.70;51.30
4874;DHT22;2451;49.970;9.068;2023-03-01T13:38:45;13.80;51.20
4874;DHT22;2451;49.970;9.068;2023-03-01T13:41:24;13.90;50.90
4874;DHT22;2451;49.970;9.068;2023-03-01T13:46:56;14.40;49.90
4874;DHT22;2451;49.970;9.068;2023-03-01T13:49:22;14.40;49.70
4874;DHT22;2451;49.970;9.068;2023-03-01T13:51:50;14.40;49.40
4874;DHT22;2451;49.970;9.068;2023-03-01T13:54:26;14.70;49.60
4874;DHT22;2451;49.970;9.068;2023-03-01T13:56:54;14.90;49.30
4874;DHT22;2451;49.970;9.068;2023-03-01T13:59:21;14.90;48.30
4874;DHT22;2451;49.970;9.068;2023-03-01T14:01:58;15.00;49.20
4874;DHT22;2451;49.970;9.068;2023-03-01T14:04:27;14.80;48.90
4874;DHT22;2451;49.970;9.068;2023-03-01T14:07:19;14.50;49.40
4874;DHT22;2451;49.970;9.068;2023-03-01T14:09:47;14.50;49.60
4874;DHT22;2451;49.970;9.068;2023-03-01T14:12:26;14.40;49.50
4874;DHT22;2451;49.970;9.068;2023-03-01T14:17:44;14.30;48.80
4874;DHT22;2451;49.970;9.068;2023-03-01T14:20:16;14.10;49.20
4874;DHT22;2451;49.970;9.068;2023-03-01T14:22:43;14.20;49.40
4874;DHT22;2451;49.970;9.068;2023-03-01T14:30:25;14.00;49.00
4874;DHT22;2451;49.970;9.068;2023-03-01T14:32:57;14.00;49.50
4874;DHT22;2451;49.970;9.068;2023-03-01T14:35:32;14.20;49.50
4874;DHT22;2451;49.970;9.068;2023-03-01T14:37:58;14.20;49.70
4874;DHT22;2451;49.970;9.068;2023-03-01T14:40:35;14.20;49.80
4874;DHT22;2451;49.970;9.068;2023-03-01T14:43:08;14.00;49.90
4874;DHT22;2451;49.970;9.068;2023-03-01T14:45:34;14.10;50.90
4874;DHT22;2451;49.970;9.068;2023-03-01T14:48:02;14.00;50.60
4874;DHT22;2451;49.970;9.068;2023-03-01T14:50:34;14.10;51.20
4874;DHT22;2451;49.970;9.068;2023-03-01T14:53:02;14.20;51.10
4874;DHT22;2451;49.970;9.068;2023-03-01T14:57:57;13.50;51.10
4874;DHT22;2451;49.970;9.068;2023-03-01T15:00:29;13.10;51.80
4874;DHT22;2451;49.970;9.068;2023-03-01T15:02:56;12.90;52.60
4874;DHT22;2451;49.970;9.068;2023-03-01T15:05:31;12.90;53.10
4874;DHT22;2451;49.970;9.068;2023-03-01T15:07:59;12.90;53.60
4874;DHT22;2451;49.970;9.068;2023-03-01T15:10:28;12.80;53.40
4874;DHT22;2451;49.970;9.068;2023-03-01T15:12:54;13.00;54.20
4874;DHT22;2451;49.970;9.068;2023-03-01T15:15:33;13.10;53.70
4874;DHT22;2451;49.970;9.068;2023-03-01T15:18:02;12.90;53.20
4874;DHT22;2451;49.970;9.068;2023-03-01T15:20:29;12.80;53.20
4874;DHT22;2451;49.970;9.068;2023-03-01T15:22:57;12.90;53.40
4874;DHT22;2451;49.970;9.068;2023-03-01T15:25:27;12.80;53.60
4874;DHT22;2451;49.970;9.068;2023-03-01T15:27:57;12.70;54.00
4874;DHT22;2451;49.970;9.068;2023-03-01T15:30:29;12.60;54.50
4874;DHT22;2451;49.970;9.068;2023-03-01T15:33:25;12.30;54.60
4874;DHT22;2451;49.970;9.068;2023-03-01T15:35:54;12.00;54.80
4874;DHT22;2451;49.970;9.068;2023-03-01T15:38:36;11.90;55.50
4874;DHT22;2451;49.970;9.068;2023-03-01T15:41:31;11.70;56.00
4874;DHT22;2451;49.970;9.068;2023-03-01T15:43:57;11.50;56.50
4874;DHT22;2451;49.970;9.068;2023-03-01T15:46:34;11.30;56.90
4874;DHT22;2451;49.970;9.068;2023-03-01T15:51:45;11.10;57.60
4874;DHT22;2451;49.970;9.068;2023-03-01T15:54:29;11.00;57.60
4874;DHT22;2451;49.970;9.068;2023-03-01T15:56:55;10.80;57.60
4874;DHT22;2451;49.970;9.068;2023-03-01T15:59:21;10.70;57.50
4874;DHT22;2451;49.970;9.068;2023-03-01T16:01:48;10.60;58.20
4874;DHT22;2451;49.970;9.068;2023-03-01T16:04:16;10.40;58.30
4874;DHT22;2451;49.970;9.068;2023-03-01T16:06:53;10.30;58.90
4874;DHT22;2451;49.970;9.068;2023-03-01T16:09:23;10.20;58.90
4874;DHT22;2451;49.970;9.068;2023-03-01T16:11:49;10.10;59.00
4874;DHT22;2451;49.970;9.068;2023-03-01T16:14:15;10.00;59.50
4874;DHT22;2451;49.970;9.068;2023-03-01T16:16:42;10.00;59.80
4874;DHT22;2451;49.970;9.068;2023-03-01T16:19:08;9.90;61.50
4874;DHT22;2451;49.970;9.068;2023-03-01T16:21:33;9.70;61.60
4874;DHT22;2451;49.970;9.068;2023-03-01T16:23:59;9.60;61.90
4874;DHT22;2451;49.970;9.068;2023-03-01T16:26:24;9.50;62.30
4874;DHT22;2451;49.970;9.068;2023-03-01T16:28:50;9.40;63.00
4874;DHT22;2451;49.970;9.068;2023-03-01T16:31:19;9.30;63.60
4874;DHT22;2451;49.970;9.068;2023-03-01T16:33:45;9.20;64.20
4874;DHT22;2451;49.970;9.068;2023-03-01T16:36:16;9.10;64.40
4874;DHT22;2451;49.970;9.068;2023-03-01T16:38:42;8.90;64.90
4874;DHT22;2451;49.970;9.068;2023-03-01T16:41:16;8.80;65.80
4874;DHT22;2451;49.970;9.068;2023-03-01T16:43:42;8.60;66.00
4874;DHT22;2451;49.970;9.068;2023-03-01T16:48:44;8.40;67.50
4874;DHT22;2451;49.970;9.068;2023-03-01T16:51:10;8.20;68.30
4874;DHT22;2451;49.970;9.068;2023-03-01T16:53:36;8.10;69.00
4874;DHT22;2451;49.970;9.068;2023-03-01T16:56:04;7.90;69.90
4874;DHT22;2451;49.970;9.068;2023-03-01T16:58:30;7.80;70.90
4874;DHT22;2451;49.970;9.068;2023-03-01T17:00:56;7.70;71.10
4874;DHT22;2451;49.970;9.068;2023-03-01T17:03:23;7.60;71.90
4874;DHT22;2451;49.970;9.068;2023-03-01T17:05:50;7.60;73.40
4874;DHT22;2451;49.970;9.068;2023-03-01T17:08:16;7.50;73.30
4874;DHT22;2451;49.970;9.068;2023-03-01T17:10:42;7.50;73.70
4874;DHT22;2451;49.970;9.068;2023-03-01T17:13:09;7.40;74.10
4874;DHT22;2451;49.970;9.068;2023-03-01T17:15:38;7.30;74.60
4874;DHT22;2451;49.970;9.068;2023-03-01T17:18:04;7.30;75.10
4874;DHT22;2451;49.970;9.068;2023-03-01T17:20:30;7.20;75.90
4874;DHT22;2451;49.970;9.068;2023-03-01T17:22:55;7.10;76.40
4874;DHT22;2451;49.970;9.068;2023-03-01T17:25:21;7.00;76.70
4874;DHT22;2451;49.970;9.068;2023-03-01T17:27:47;6.90;77.10
4874;DHT22;2451;49.970;9.068;2023-03-01T17:30:13;6.90;77.80
4874;DHT22;2451;49.970;9.068;2023-03-01T17:32:39;6.80;78.10
4874;DHT22;2451;49.970;9.068;2023-03-01T17:35:05;6.80;78.70
4874;DHT22;2451;49.970;9.068;2023-03-01T17:37:32;6.70;79.20
4874;DHT22;2451;49.970;9.068;2023-03-01T17:39:58;6.70;79.20
4874;DHT22;2451;49.970;9.068;2023-03-01T17:42:23;6.70;79.70
4874;DHT22;2451;49.970;9.068;2023-03-01T17:44:49;6.60;80.20
4874;DHT22;2451;49.970;9.068;2023-03-01T17:47:15;6.60;80.90
4874;DHT22;2451;49.970;9.068;2023-03-01T17:49:40;6.60;81.20
4874;DHT22;2451;49.970;9.068;2023-03-01T17:52:06;6.60;81.80
4874;DHT22;2451;49.970;9.068;2023-03-01T17:54:32;6.50;82.20
4874;DHT22;2451;49.970;9.068;2023-03-01T17:56:58;6.50;82.60
4874;DHT22;2451;49.970;9.068;2023-03-01T17:59:24;6.40;83.00
4874;DHT22;2451;49.970;9.068;2023-03-01T18:01:49;6.40;83.40
4874;DHT22;2451;49.970;9.068;2023-03-01T18:04:15;6.40;83.10
4874;DHT22;2451;49.970;9.068;2023-03-01T18:06:42;6.30;83.60
4874;DHT22;2451;49.970;9.068;2023-03-01T18:09:08;6.20;84.00
4874;DHT22;2451;49.970;9.068;2023-03-01T18:11:34;6.20;84.90
4874;DHT22;2451;49.970;9.068;2023-03-01T18:14:00;6.10;85.70
4874;DHT22;2451;49.970;9.068;2023-03-01T18:16:26;6.10;85.90